Terminal Aerodrome Forecast
Issued by NWS

Home | Current Version | Previous Version | Graphics & Text | Print | Product List | Glossary On
Versions: 1 2 3 4 5 6 7 8 9 10 11 12
000
FTUS43 KABR 190500
TAFMBG
TAF
KMBG 190524Z 1906/2006 15007KT P6SM FEW250
     FM190800 28008KT P6SM SKC
     FM191200 32010KT P6SM SKC
     FM192300 36007KT P6SM SKC=

USA.gov is the U.S. government's official web portal to all federal, state and local government web resources and services.